createdAt,value
2018-08-06T00:00:14.816Z,1006.60
2018-08-06T00:01:14.853Z,1006.60
2018-08-06T00:02:14.878Z,1006.55
2018-08-06T00:03:14.901Z,1006.54
2018-08-06T00:04:14.935Z,1006.55
2018-08-06T00:05:14.956Z,1006.57
2018-08-06T00:06:14.995Z,1006.54
2018-08-06T00:07:15.023Z,1006.52
2018-08-06T00:08:15.042Z,1006.50
2018-08-06T00:09:15.078Z,1006.51
2018-08-06T00:10:15.090Z,1006.51
2018-08-06T00:11:15.112Z,1006.49
2018-08-06T00:12:15.145Z,1006.48
2018-08-06T00:13:15.171Z,1006.45
2018-08-06T00:14:15.202Z,1006.48
2018-08-06T00:15:15.228Z,1006.48
2018-08-06T00:16:15.256Z,1006.50
2018-08-06T00:17:15.298Z,1006.46
2018-08-06T00:18:15.308Z,1006.51
2018-08-06T00:19:15.339Z,1006.46
2018-08-06T00:20:15.360Z,1006.50
2018-08-06T00:21:15.387Z,1006.50
2018-08-06T00:22:15.427Z,1006.45
2018-08-06T00:23:15.446Z,1006.45
2018-08-06T00:24:15.468Z,1006.44
2018-08-06T00:25:15.497Z,1006.44
2018-08-06T00:26:15.525Z,1006.47
2018-08-06T00:27:15.551Z,1006.47
2018-08-06T00:28:15.578Z,1006.45
2018-08-06T00:29:15.622Z,1006.46
2018-08-06T00:30:15.637Z,1006.46
2018-08-06T00:31:15.663Z,1006.50
2018-08-06T00:32:15.698Z,1006.47
2018-08-06T00:33:15.714Z,1006.47
2018-08-06T00:34:15.743Z,1006.45
2018-08-06T00:35:15.767Z,1006.45
2018-08-06T00:36:15.796Z,1006.42
2018-08-06T00:37:15.819Z,1006.43
2018-08-06T00:38:15.858Z,1006.44
2018-08-06T00:39:15.873Z,1006.47
2018-08-06T00:40:15.897Z,1006.43
2018-08-06T00:41:15.932Z,1006.46
2018-08-06T00:42:15.949Z,1006.47
2018-08-06T00:43:15.984Z,1006.45
2018-08-06T00:44:16.007Z,1006.41
2018-08-06T00:45:16.124Z,1006.40
2018-08-06T00:46:16.056Z,1006.42
2018-08-06T00:47:16.108Z,1006.38
2018-08-06T00:48:16.115Z,1006.37
2018-08-06T00:49:16.140Z,1006.38
2018-08-06T00:50:16.178Z,1006.35
2018-08-06T00:51:16.195Z,1006.32
2018-08-06T00:52:16.230Z,1006.26
2018-08-06T00:53:16.249Z,1006.27
2018-08-06T00:54:16.276Z,1006.30
2018-08-06T00:55:16.320Z,1006.24
2018-08-06T00:56:16.394Z,1006.31
2018-08-06T00:57:16.355Z,1006.27
2018-08-06T00:58:16.391Z,1006.31
2018-08-06T00:59:16.411Z,1006.28
2018-08-06T01:00:16.443Z,1006.27
2018-08-06T01:01:16.462Z,1006.29
2018-08-06T01:02:16.491Z,1006.25
2018-08-06T01:03:16.516Z,1006.26
2018-08-06T01:04:16.542Z,1006.26
2018-08-06T01:05:16.573Z,1006.29
2018-08-06T01:06:16.594Z,1006.24
2018-08-06T01:07:16.623Z,1006.25
2018-08-06T01:08:16.652Z,1006.27
2018-08-06T01:09:16.677Z,1006.21
2018-08-06T01:10:16.701Z,1006.26
2018-08-06T01:11:16.725Z,1006.23
2018-08-06T01:12:16.754Z,1006.27
2018-08-06T01:13:16.786Z,1006.30
2018-08-06T01:14:16.816Z,1006.30
2018-08-06T01:15:16.836Z,1006.26
2018-08-06T01:16:16.873Z,1006.30
2018-08-06T01:17:16.892Z,1006.29
2018-08-06T01:18:16.918Z,1006.26
2018-08-06T01:19:16.945Z,1006.22
2018-08-06T01:20:16.973Z,1006.28
2018-08-06T01:21:16.999Z,1006.27
2018-08-06T01:22:17.021Z,1006.27
2018-08-06T01:23:17.050Z,1006.30
2018-08-06T01:24:17.074Z,1006.28
2018-08-06T01:25:17.106Z,1006.24
2018-08-06T01:26:17.129Z,1006.23
2018-08-06T01:27:17.164Z,1006.19
2018-08-06T01:28:17.179Z,1006.26
2018-08-06T01:29:17.215Z,1006.21
2018-08-06T01:30:17.235Z,1006.22
2018-08-06T01:31:17.256Z,1006.21
2018-08-06T01:32:17.284Z,1006.23
2018-08-06T01:33:17.314Z,1006.20
2018-08-06T01:34:17.341Z,1006.20
2018-08-06T01:35:17.372Z,1006.24
2018-08-06T01:36:17.400Z,1006.23
2018-08-06T01:37:17.424Z,1006.23
2018-08-06T01:38:17.481Z,1006.21
2018-08-06T01:39:17.473Z,1006.23
2018-08-06T01:40:17.499Z,1006.23
2018-08-06T01:41:17.529Z,1006.24
2018-08-06T01:42:17.557Z,1006.25
2018-08-06T01:43:17.580Z,1006.20
2018-08-06T01:44:17.605Z,1006.27
2018-08-06T01:45:17.636Z,1006.25
2018-08-06T01:46:17.662Z,1006.22
2018-08-06T01:48:17.714Z,1006.23
2018-08-06T01:49:17.742Z,1006.22
2018-08-06T01:50:17.760Z,1006.17
2018-08-06T01:51:17.790Z,1006.16
2018-08-06T01:52:17.820Z,1006.20
2018-08-06T01:53:17.843Z,1006.14
2018-08-06T01:54:17.891Z,1006.12
2018-08-06T01:55:17.898Z,1006.12
2018-08-06T01:56:17.921Z,1006.09
2018-08-06T01:57:17.957Z,1006.05
2018-08-06T01:58:17.975Z,1006.07
2018-08-06T01:59:18.007Z,1006.01
2018-08-06T02:00:18.025Z,1006.03
2018-08-06T02:01:18.052Z,1006.00
2018-08-06T02:02:18.098Z,1005.97
2018-08-06T02:03:18.116Z,1005.99
2018-08-06T02:04:18.138Z,1005.98
2018-08-06T02:05:18.162Z,1005.98
2018-08-06T02:06:18.188Z,1005.96
2018-08-06T02:07:18.222Z,1005.97
2018-08-06T02:08:18.234Z,1005.98
2018-08-06T02:09:18.270Z,1005.99
2018-08-06T02:10:18.291Z,1006.02
2018-08-06T02:11:18.321Z,1005.98
2018-08-06T02:12:18.341Z,1005.98
2018-08-06T02:13:18.368Z,1005.94
2018-08-06T02:14:18.397Z,1005.92
2018-08-06T02:15:18.427Z,1005.94
2018-08-06T02:16:18.462Z,1005.93
2018-08-06T02:17:18.479Z,1005.92
2018-08-06T02:18:18.509Z,1005.90
2018-08-06T02:19:18.523Z,1005.88
2018-08-06T02:20:18.552Z,1005.88
2018-08-06T02:21:18.584Z,1005.87
2018-08-06T02:22:18.607Z,1005.88
2018-08-06T02:23:18.636Z,1005.87
2018-08-06T02:24:18.669Z,1005.82
2018-08-06T02:25:18.692Z,1005.80
2018-08-06T02:26:18.714Z,1005.80
2018-08-06T02:27:18.739Z,1005.77
2018-08-06T02:28:18.763Z,1005.79
2018-08-06T02:29:18.789Z,1005.78
2018-08-06T02:30:18.817Z,1005.78
2018-08-06T02:31:18.844Z,1005.77
2018-08-06T02:32:18.868Z,1005.78
2018-08-06T02:33:18.901Z,1005.75
2018-08-06T02:34:18.933Z,1005.73
2018-08-06T02:35:18.950Z,1005.77
2018-08-06T02:36:18.977Z,1005.73
2018-08-06T02:37:19.005Z,1005.71
2018-08-06T02:38:19.026Z,1005.72
2018-08-06T02:39:19.059Z,1005.72
2018-08-06T02:40:19.083Z,1005.69
2018-08-06T02:41:19.103Z,1005.68
2018-08-06T02:42:19.128Z,1005.69
2018-08-06T02:43:19.160Z,1005.65
2018-08-06T02:44:19.186Z,1005.65
2018-08-06T02:45:19.202Z,1005.58
2018-08-06T02:46:19.233Z,1005.58
2018-08-06T02:47:19.260Z,1005.59
2018-08-06T02:48:19.290Z,1005.59
2018-08-06T02:49:19.314Z,1005.58
2018-08-06T02:50:19.345Z,1005.57
2018-08-06T02:51:19.364Z,1005.58
2018-08-06T02:52:19.389Z,1005.59
2018-08-06T02:53:19.422Z,1005.55
2018-08-06T02:54:19.444Z,1005.55
2018-08-06T02:55:19.465Z,1005.53
2018-08-06T02:56:19.491Z,1005.56
2018-08-06T02:57:19.520Z,1005.59
2018-08-06T02:58:19.545Z,1005.55
2018-08-06T02:59:19.574Z,1005.54
2018-08-06T03:00:19.608Z,1005.55
2018-08-06T03:01:19.620Z,1005.55
2018-08-06T03:02:19.643Z,1005.55
2018-08-06T03:03:19.678Z,1005.52
2018-08-06T03:04:19.709Z,1005.54
2018-08-06T03:05:19.724Z,1005.56
2018-08-06T03:06:19.757Z,1005.57
2018-08-06T03:07:19.788Z,1005.58
2018-08-06T03:08:19.804Z,1005.57
2018-08-06T03:09:19.827Z,1005.60
2018-08-06T03:10:19.851Z,1005.58
2018-08-06T03:11:19.881Z,1005.60
2018-08-06T03:12:19.913Z,1005.56
2018-08-06T03:13:19.932Z,1005.54
2018-08-06T03:14:19.961Z,1005.56
2018-08-06T03:15:19.983Z,1005.53
2018-08-06T03:16:20.932Z,1005.53
2018-08-06T03:17:20.040Z,1005.55
2018-08-06T03:18:20.064Z,1005.55
2018-08-06T03:19:20.096Z,1005.53
2018-08-06T03:20:20.113Z,1005.47
2018-08-06T03:21:20.137Z,1005.48
2018-08-06T03:22:20.171Z,1005.48
2018-08-06T03:23:20.188Z,1005.49
2018-08-06T03:24:20.222Z,1005.46
2018-08-06T03:25:20.244Z,1005.47
2018-08-06T03:26:20.286Z,1005.44
2018-08-06T03:27:20.297Z,1005.47
2018-08-06T03:28:20.322Z,1005.50
2018-08-06T03:29:20.349Z,1005.48
2018-08-06T03:30:20.376Z,1005.53
2018-08-06T03:31:20.402Z,1005.49
2018-08-06T03:32:20.431Z,1005.52
2018-08-06T03:33:20.454Z,1005.48
2018-08-06T03:34:20.475Z,1005.47
2018-08-06T03:35:20.515Z,1005.45
2018-08-06T03:36:20.528Z,1005.53
2018-08-06T03:37:20.553Z,1005.49
2018-08-06T03:38:20.583Z,1005.49
2018-08-06T03:39:20.601Z,1005.53
2018-08-06T03:40:20.686Z,1005.52
2018-08-06T03:42:20.679Z,1005.52
2018-08-06T03:43:20.715Z,1005.54
2018-08-06T03:44:20.727Z,1005.53
2018-08-06T03:45:20.772Z,1005.50
2018-08-06T03:46:20.785Z,1005.55
2018-08-06T03:47:20.813Z,1005.53
2018-08-06T03:48:20.855Z,1005.55
2018-08-06T03:49:20.863Z,1005.53
2018-08-06T03:50:20.892Z,1005.54
2018-08-06T03:51:20.915Z,1005.47
2018-08-06T03:52:20.939Z,1005.53
2018-08-06T03:53:20.961Z,1005.56
2018-08-06T03:54:20.988Z,1005.51
2018-08-06T03:55:21.016Z,1005.52
2018-08-06T03:56:21.043Z,1005.52
2018-08-06T03:57:21.068Z,1005.52
2018-08-06T03:58:21.092Z,1005.51
2018-08-06T03:59:21.114Z,1005.51
2018-08-06T04:00:21.160Z,1005.51
2018-08-06T04:01:21.189Z,1005.52
2018-08-06T04:02:21.191Z,1005.57
2018-08-06T04:03:21.217Z,1005.55
2018-08-06T04:04:21.240Z,1005.57
2018-08-06T04:05:21.272Z,1005.56
2018-08-06T04:06:21.292Z,1005.58
2018-08-06T04:07:21.320Z,1005.59
2018-08-06T04:08:21.354Z,1005.56
2018-08-06T04:09:21.373Z,1005.55
2018-08-06T04:10:21.396Z,1005.56
2018-08-06T04:11:21.426Z,1005.58
2018-08-06T04:12:21.455Z,1005.57
2018-08-06T04:13:21.476Z,1005.57
2018-08-06T04:14:21.502Z,1005.57
2018-08-06T04:15:21.521Z,1005.56
2018-08-06T04:16:21.550Z,1005.56
2018-08-06T04:17:21.571Z,1005.57
2018-08-06T04:18:21.612Z,1005.58
2018-08-06T04:19:21.629Z,1005.60
2018-08-06T04:20:21.652Z,1005.60
2018-08-06T04:21:21.676Z,1005.61
2018-08-06T04:22:21.705Z,1005.62
2018-08-06T04:23:21.730Z,1005.59
2018-08-06T04:24:21.754Z,1005.61
2018-08-06T04:25:21.785Z,1005.61
2018-08-06T04:26:21.807Z,1005.60
2018-08-06T04:27:21.832Z,1005.58
2018-08-06T04:28:21.865Z,1005.61
2018-08-06T04:29:21.888Z,1005.64
2018-08-06T04:30:21.909Z,1005.65
2018-08-06T04:31:21.938Z,1005.64
2018-08-06T04:32:21.960Z,1005.61
2018-08-06T04:33:43.003Z,1005.61
2018-08-06T04:34:22.015Z,1005.59
2018-08-06T04:35:22.045Z,1005.64
2018-08-06T04:36:22.057Z,1005.61
2018-08-06T04:37:22.087Z,1005.60
2018-08-06T04:38:22.120Z,1005.61
2018-08-06T04:39:22.141Z,1005.59
2018-08-06T04:40:22.163Z,1005.65
2018-08-06T04:41:22.186Z,1005.65
2018-08-06T04:42:22.224Z,1005.65
2018-08-06T04:43:22.240Z,1005.64
2018-08-06T04:44:22.265Z,1005.67
2018-08-06T04:45:22.284Z,1005.65
2018-08-06T04:46:22.324Z,1005.65
2018-08-06T04:47:22.344Z,1005.64
2018-08-06T04:48:22.374Z,1005.66
2018-08-06T04:49:22.393Z,1005.66
2018-08-06T04:50:22.421Z,1005.70
2018-08-06T04:51:22.452Z,1005.67
2018-08-06T04:52:22.468Z,1005.69
2018-08-06T04:53:22.495Z,1005.67
2018-08-06T04:54:22.557Z,1005.71
2018-08-06T04:55:22.546Z,1005.72
2018-08-06T04:56:22.579Z,1005.73
2018-08-06T04:57:22.598Z,1005.73
2018-08-06T04:58:22.628Z,1005.74
2018-08-06T04:59:22.648Z,1005.75
2018-08-06T05:00:22.679Z,1005.76
2018-08-06T05:01:22.691Z,1005.77
2018-08-06T05:02:22.725Z,1005.77
2018-08-06T05:03:22.759Z,1005.78
2018-08-06T05:04:22.771Z,1005.78
2018-08-06T05:05:22.812Z,1005.75
2018-08-06T05:06:22.827Z,1005.76
2018-08-06T05:07:22.851Z,1005.73
2018-08-06T05:08:22.871Z,1005.76
2018-08-06T05:09:22.902Z,1005.72
2018-08-06T05:10:22.927Z,1005.76
2018-08-06T05:11:22.956Z,1005.73
2018-08-06T05:12:22.991Z,1005.75
2018-08-06T05:13:23.007Z,1005.72
2018-08-06T05:14:23.028Z,1005.70
2018-08-06T05:15:23.057Z,1005.70
2018-08-06T05:16:23.091Z,1005.76
2018-08-06T05:17:23.108Z,1005.72
2018-08-06T05:18:23.134Z,1005.75
2018-08-06T05:19:23.179Z,1005.75
2018-08-06T05:20:23.180Z,1005.72
2018-08-06T05:21:23.215Z,1005.73
2018-08-06T05:22:23.240Z,1005.76
2018-08-06T05:23:23.263Z,1005.75
2018-08-06T05:24:23.281Z,1005.75
2018-08-06T05:25:23.313Z,1005.75
2018-08-06T05:26:23.340Z,1005.71
2018-08-06T05:27:23.364Z,1005.75
2018-08-06T05:28:23.389Z,1005.75
2018-08-06T05:29:23.416Z,1005.72
2018-08-06T05:30:23.450Z,1005.78
2018-08-06T05:31:23.492Z,1005.77
2018-08-06T05:32:23.494Z,1005.76
2018-08-06T05:33:23.521Z,1005.80
2018-08-06T05:34:23.542Z,1005.78
2018-08-06T05:35:23.582Z,1005.78
2018-08-06T05:36:23.596Z,1005.80
2018-08-06T05:37:23.631Z,1005.81
2018-08-06T05:38:23.656Z,1005.81
2018-08-06T05:39:23.671Z,1005.85
2018-08-06T05:40:23.695Z,1005.82
2018-08-06T05:41:23.727Z,1005.87
2018-08-06T05:42:23.751Z,1005.85
2018-08-06T05:43:23.780Z,1005.84
2018-08-06T05:44:23.804Z,1005.85
2018-08-06T05:45:23.823Z,1005.82
2018-08-06T05:46:23.864Z,1005.85
2018-08-06T05:47:23.882Z,1005.84
2018-08-06T05:48:24.022Z,1005.83
2018-08-06T05:49:23.966Z,1005.88
2018-08-06T05:50:23.960Z,1005.89
2018-08-06T05:51:23.985Z,1005.89
2018-08-06T05:52:24.008Z,1005.89
2018-08-06T05:53:24.038Z,1005.90
2018-08-06T05:54:24.073Z,1005.89
2018-08-06T05:55:24.089Z,1005.90
2018-08-06T05:56:24.109Z,1005.94
2018-08-06T05:57:24.142Z,1005.89
2018-08-06T05:58:24.226Z,1005.93
2018-08-06T05:59:24.194Z,1005.91
2018-08-06T06:00:24.220Z,1005.88
2018-08-06T06:01:24.247Z,1005.92
2018-08-06T06:02:24.267Z,1005.92
2018-08-06T06:03:24.396Z,1005.88
2018-08-06T06:04:24.323Z,1005.92
2018-08-06T06:05:24.346Z,1005.90
2018-08-06T06:06:24.377Z,1005.83
2018-08-06T06:07:24.402Z,1005.86
2018-08-06T06:08:24.427Z,1005.80
2018-08-06T06:09:24.456Z,1005.83
2018-08-06T06:10:24.475Z,1005.79
2018-08-06T06:11:24.509Z,1005.81
2018-08-06T06:12:24.529Z,1005.77
2018-08-06T06:13:24.556Z,1005.76
2018-08-06T06:14:24.601Z,1005.77
2018-08-06T06:15:24.614Z,1005.77
2018-08-06T06:16:24.633Z,1005.78
2018-08-06T06:17:24.659Z,1005.76
2018-08-06T06:18:24.688Z,1005.75
2018-08-06T06:19:24.716Z,1005.75
2018-08-06T06:20:24.739Z,1005.72
2018-08-06T06:21:24.766Z,1005.75
2018-08-06T06:22:24.794Z,1005.73
2018-08-06T06:23:24.823Z,1005.76
2018-08-06T06:24:24.849Z,1005.72
2018-08-06T06:25:24.878Z,1005.70
2018-08-06T06:26:24.911Z,1005.71
2018-08-06T06:27:24.930Z,1005.69
2018-08-06T06:28:24.948Z,1005.67
2018-08-06T06:29:24.978Z,1005.69
2018-08-06T06:30:25.009Z,1005.68
2018-08-06T06:31:25.032Z,1005.65
2018-08-06T06:32:25.058Z,1005.70
2018-08-06T06:33:25.084Z,1005.64
2018-08-06T06:34:25.115Z,1005.69
2018-08-06T06:35:25.137Z,1005.70
2018-08-06T06:36:25.161Z,1005.66
2018-08-06T06:37:25.187Z,1005.66
2018-08-06T06:38:25.214Z,1005.66
2018-08-06T06:39:25.248Z,1005.64
2018-08-06T06:40:25.293Z,1005.66
2018-08-06T06:41:25.302Z,1005.61
2018-08-06T06:42:25.317Z,1005.62
2018-08-06T06:43:25.341Z,1005.63
2018-08-06T06:44:25.374Z,1005.64
2018-08-06T06:45:25.397Z,1005.62
2018-08-06T06:46:25.423Z,1005.61
2018-08-06T06:47:25.454Z,1005.66
2018-08-06T06:48:25.484Z,1005.65
2018-08-06T06:49:25.510Z,1005.63
2018-08-06T06:50:25.524Z,1005.59
2018-08-06T06:51:25.559Z,1005.58
2018-08-06T06:52:25.585Z,1005.56
2018-08-06T06:53:25.610Z,1005.57
2018-08-06T06:54:25.662Z,1005.59
2018-08-06T06:55:25.666Z,1005.56
2018-08-06T06:56:25.690Z,1005.52
2018-08-06T06:57:25.713Z,1005.58
2018-08-06T06:58:25.741Z,1005.59
2018-08-06T06:59:25.769Z,1005.60
2018-08-06T07:00:25.794Z,1005.57
2018-08-06T07:01:25.820Z,1005.55
2018-08-06T07:02:25.846Z,1005.57
2018-08-06T07:03:25.876Z,1005.59
2018-08-06T07:04:25.907Z,1005.55
2018-08-06T07:05:25.932Z,1005.58
2018-08-06T07:06:26.008Z,1005.55
2018-08-06T07:07:25.992Z,1005.58
2018-08-06T07:08:26.010Z,1005.59
2018-08-06T07:09:26.056Z,1005.54
2018-08-06T07:10:26.064Z,1005.53
2018-08-06T07:11:26.088Z,1005.55
2018-08-06T07:13:26.147Z,1005.52
2018-08-06T07:14:26.171Z,1005.49
2018-08-06T07:15:26.198Z,1005.53
2018-08-06T07:16:26.233Z,1005.53
2018-08-06T07:17:26.248Z,1005.50
2018-08-06T07:18:26.285Z,1005.47
2018-08-06T07:19:26.305Z,1005.46
2018-08-06T07:20:26.383Z,1005.47
2018-08-06T07:21:26.357Z,1005.52
2018-08-06T07:22:26.386Z,1005.50
2018-08-06T07:23:26.409Z,1005.45
2018-08-06T07:24:26.436Z,1005.44
2018-08-06T07:25:26.462Z,1005.46
2018-08-06T07:26:26.490Z,1005.46
2018-08-06T07:27:26.514Z,1005.47
2018-08-06T07:28:26.547Z,1005.43
2018-08-06T07:29:26.571Z,1005.40
2018-08-06T07:30:26.600Z,1005.41
2018-08-06T07:31:26.626Z,1005.36
2018-08-06T07:32:26.665Z,1005.38
2018-08-06T07:33:26.678Z,1005.34
2018-08-06T07:34:26.711Z,1005.35
2018-08-06T07:35:26.737Z,1005.33
2018-08-06T07:36:26.771Z,1005.35
2018-08-06T07:37:26.796Z,1005.35
2018-08-06T07:38:26.821Z,1005.36
2018-08-06T07:39:26.865Z,1005.33
2018-08-06T07:40:26.861Z,1005.39
2018-08-06T07:41:26.895Z,1005.39
2018-08-06T07:42:26.922Z,1005.40
2018-08-06T07:43:26.950Z,1005.40
2018-08-06T07:44:26.974Z,1005.40
2018-08-06T07:45:27.010Z,1005.38
2018-08-06T07:46:27.036Z,1005.38
2018-08-06T07:47:27.055Z,1005.40
2018-08-06T07:48:27.081Z,1005.38
2018-08-06T07:49:27.149Z,1005.39
2018-08-06T07:50:27.149Z,1005.34
2018-08-06T07:51:27.164Z,1005.37
2018-08-06T07:52:27.188Z,1005.30
2018-08-06T07:53:27.223Z,1005.28
2018-08-06T07:54:27.251Z,1005.30
2018-08-06T07:55:27.274Z,1005.31
2018-08-06T07:56:27.300Z,1005.34
2018-08-06T07:57:27.331Z,1005.31
2018-08-06T07:58:27.367Z,1005.31
2018-08-06T07:59:27.391Z,1005.35
2018-08-06T08:00:27.411Z,1005.28
2018-08-06T08:01:27.435Z,1005.29
2018-08-06T08:02:27.466Z,1005.29
2018-08-06T08:03:27.499Z,1005.27
2018-08-06T08:04:27.525Z,1005.22
2018-08-06T08:05:27.555Z,1005.27
2018-08-06T08:06:27.597Z,1005.27
2018-08-06T08:07:27.604Z,1005.24
2018-08-06T08:08:27.645Z,1005.25
2018-08-06T08:09:27.662Z,1005.27
2018-08-06T08:10:27.692Z,1005.23
2018-08-06T08:11:27.709Z,1005.20
2018-08-06T08:12:27.738Z,1005.16
2018-08-06T08:13:27.787Z,1005.16
2018-08-06T08:14:27.804Z,1005.19
2018-08-06T08:16:27.852Z,1005.15
2018-08-06T08:17:27.884Z,1005.15
2018-08-06T08:18:27.908Z,1005.11
2018-08-06T08:19:27.966Z,1005.09
2018-08-06T08:20:27.965Z,1005.06
2018-08-06T08:21:27.989Z,1005.07
2018-08-06T08:22:28.019Z,1005.08
2018-08-06T08:23:28.049Z,1005.10
2018-08-06T08:24:28.079Z,1005.09
2018-08-06T08:25:28.109Z,1005.11
2018-08-06T08:26:28.130Z,1005.11
2018-08-06T08:27:28.159Z,1005.11
2018-08-06T08:28:28.189Z,1005.14
2018-08-06T08:29:28.218Z,1005.11
2018-08-06T08:30:28.240Z,1005.12
2018-08-06T08:31:28.270Z,1005.12
2018-08-06T08:32:28.309Z,1005.13
2018-08-06T08:33:28.329Z,1005.11
2018-08-06T08:34:28.357Z,1005.08
2018-08-06T08:35:28.374Z,1005.07
2018-08-06T08:36:28.406Z,1005.04
2018-08-06T08:38:28.466Z,1005.01
2018-08-06T08:39:28.540Z,1005.01
2018-08-06T08:40:28.519Z,1005.08
2018-08-06T08:41:28.553Z,1005.04
2018-08-06T08:42:28.599Z,1005.02
2018-08-06T08:43:28.615Z,1005.05
2018-08-06T08:44:28.638Z,1005.01
2018-08-06T08:45:28.668Z,1004.99
2018-08-06T08:46:28.688Z,1005.01
2018-08-06T08:47:28.719Z,1004.99
2018-08-06T08:48:28.751Z,1004.96
2018-08-06T08:49:28.775Z,1004.94
2018-08-06T08:50:28.798Z,1004.89
2018-08-06T08:51:28.832Z,1004.94
2018-08-06T08:52:28.908Z,1004.93
2018-08-06T08:53:28.886Z,1004.91
2018-08-06T08:54:28.919Z,1004.89
2018-08-06T08:55:28.941Z,1004.84
2018-08-06T08:56:28.970Z,1004.85
2018-08-06T08:57:29.005Z,1004.84
2018-08-06T08:58:29.034Z,1004.82
2018-08-06T08:59:29.066Z,1004.83
2018-08-06T09:00:29.089Z,1004.80
2018-08-06T09:01:29.111Z,1004.78
2018-08-06T09:02:29.145Z,1004.79
2018-08-06T09:03:29.182Z,1004.79
2018-08-06T09:04:29.198Z,1004.78
2018-08-06T09:05:29.225Z,1004.77
2018-08-06T09:06:29.253Z,1004.77
2018-08-06T09:07:29.280Z,1004.77
2018-08-06T09:08:29.313Z,1004.74
2018-08-06T09:09:29.340Z,1004.75
2018-08-06T09:10:29.368Z,1004.72
2018-08-06T09:11:29.399Z,1004.68
2018-08-06T09:12:29.423Z,1004.69
2018-08-06T09:13:29.455Z,1004.71
2018-08-06T09:14:29.497Z,1004.72
2018-08-06T09:15:29.513Z,1004.69
2018-08-06T09:16:29.544Z,1004.68
2018-08-06T09:17:29.567Z,1004.66
2018-08-06T09:18:29.599Z,1004.63
2018-08-06T09:19:29.636Z,1004.66
2018-08-06T09:20:29.662Z,1004.69
2018-08-06T09:21:29.688Z,1004.65
2018-08-06T09:22:29.712Z,1004.63
2018-08-06T09:23:29.735Z,1004.64
2018-08-06T09:24:29.770Z,1004.65
2018-08-06T09:25:29.797Z,1004.62
2018-08-06T09:26:29.829Z,1004.63
2018-08-06T09:27:29.853Z,1004.60
2018-08-06T09:28:29.884Z,1004.62
2018-08-06T09:29:29.912Z,1004.60
2018-08-06T09:30:29.942Z,1004.64
2018-08-06T09:31:29.968Z,1004.59
2018-08-06T09:32:29.993Z,1004.60
2018-08-06T09:33:30.022Z,1004.54
2018-08-06T09:34:30.050Z,1004.54
2018-08-06T09:35:30.090Z,1004.51
2018-08-06T09:36:30.107Z,1004.47
2018-08-06T09:37:30.138Z,1004.48
2018-08-06T09:38:30.212Z,1004.52
2018-08-06T09:39:30.207Z,1004.54
2018-08-06T09:40:30.275Z,1004.49
2018-08-06T09:41:30.259Z,1004.52
2018-08-06T09:42:30.287Z,1004.47
2018-08-06T09:43:30.321Z,1004.45
2018-08-06T09:44:30.339Z,1004.49
2018-08-06T09:45:30.372Z,1004.44
2018-08-06T09:46:30.407Z,1004.43
2018-08-06T09:47:30.439Z,1004.36
2018-08-06T09:48:30.506Z,1004.36
2018-08-06T09:49:30.491Z,1004.40
2018-08-06T09:50:30.519Z,1004.41
2018-08-06T09:51:30.547Z,1004.42
2018-08-06T09:52:30.579Z,1004.38
2018-08-06T09:53:30.613Z,1004.39
2018-08-06T09:54:30.638Z,1004.33
2018-08-06T09:55:30.669Z,1004.29
2018-08-06T09:56:30.695Z,1004.29
2018-08-06T09:57:30.716Z,1004.27
2018-08-06T09:58:30.752Z,1004.24
2018-08-06T09:59:30.785Z,1004.26
2018-08-06T10:00:30.805Z,1004.26
2018-08-06T10:01:30.840Z,1004.30
2018-08-06T10:02:30.877Z,1004.29
2018-08-06T10:03:30.905Z,1004.25
2018-08-06T10:04:30.930Z,1004.22
2018-08-06T10:05:30.988Z,1004.27
2018-08-06T10:06:31.243Z,1004.21
2018-08-06T10:07:31.011Z,1004.26
2018-08-06T10:08:31.033Z,1004.22
2018-08-06T10:09:31.075Z,1004.17
2018-08-06T10:10:31.100Z,1004.19
2018-08-06T10:11:31.134Z,1004.17
2018-08-06T10:12:31.156Z,1004.14
2018-08-06T10:13:31.194Z,1004.11
2018-08-06T10:14:31.215Z,1004.10
2018-08-06T10:15:31.241Z,1004.18
2018-08-06T10:16:31.274Z,1004.10
2018-08-06T10:17:31.313Z,1004.07
2018-08-06T10:18:31.344Z,1004.09
2018-08-06T10:19:31.389Z,1004.09
2018-08-06T10:20:31.403Z,1004.09
2018-08-06T10:21:31.418Z,1004.04
2018-08-06T10:22:31.451Z,1004.09
2018-08-06T10:23:31.485Z,1004.01
2018-08-06T10:24:31.573Z,1004.04
2018-08-06T10:25:31.533Z,1003.99
2018-08-06T10:26:31.577Z,1003.95
2018-08-06T10:27:31.596Z,1003.99
2018-08-06T10:28:31.626Z,1003.97
2018-08-06T10:29:31.659Z,1003.97
2018-08-06T10:30:31.777Z,1003.93
2018-08-06T10:31:31.717Z,1003.88
2018-08-06T10:32:31.753Z,1003.87
2018-08-06T10:33:31.778Z,1003.84
2018-08-06T10:34:31.805Z,1003.87
2018-08-06T10:35:31.834Z,1003.85
2018-08-06T10:36:31.865Z,1003.85
2018-08-06T10:37:31.910Z,1003.87
2018-08-06T10:38:31.930Z,1003.86
2018-08-06T10:39:31.955Z,1003.83
2018-08-06T10:40:32.038Z,1003.80
2018-08-06T10:41:32.019Z,1003.87
2018-08-06T10:42:32.041Z,1003.84
2018-08-06T10:43:32.071Z,1003.83
2018-08-06T10:44:32.099Z,1003.82
2018-08-06T10:45:32.125Z,1003.83
2018-08-06T10:46:32.162Z,1003.76
2018-08-06T10:47:32.205Z,1003.79
2018-08-06T10:48:32.379Z,1003.76
2018-08-06T10:49:32.248Z,1003.72
2018-08-06T10:50:32.293Z,1003.73
2018-08-06T10:51:32.309Z,1003.71
2018-08-06T10:52:32.342Z,1003.71
2018-08-06T10:53:32.374Z,1003.65
2018-08-06T10:54:32.397Z,1003.65
2018-08-06T10:55:32.436Z,1003.68
2018-08-06T10:56:32.456Z,1003.68
2018-08-06T10:57:32.490Z,1003.70
2018-08-06T10:58:32.511Z,1003.70
2018-08-06T10:59:32.570Z,1003.64
2018-08-06T11:00:32.637Z,1003.65
2018-08-06T11:01:32.614Z,1003.66
2018-08-06T11:02:32.628Z,1003.67
2018-08-06T11:03:32.690Z,1003.62
2018-08-06T11:04:32.735Z,1003.61
2018-08-06T11:05:32.725Z,1003.61
2018-08-06T11:06:32.766Z,1003.61
2018-08-06T11:07:32.787Z,1003.60
2018-08-06T11:08:32.818Z,1003.56
2018-08-06T11:09:32.848Z,1003.60
2018-08-06T11:10:32.872Z,1003.60
2018-08-06T11:11:32.923Z,1003.59
2018-08-06T11:12:32.937Z,1003.56
2018-08-06T11:13:32.980Z,1003.54
2018-08-06T11:14:33.012Z,1003.52
2018-08-06T11:15:33.024Z,1003.54
2018-08-06T11:16:33.059Z,1003.51
2018-08-06T11:17:33.086Z,1003.54
2018-08-06T11:18:33.249Z,1003.53
2018-08-06T11:19:33.153Z,1003.54
2018-08-06T11:20:33.209Z,1003.51
2018-08-06T11:21:33.215Z,1003.50
2018-08-06T11:22:33.232Z,1003.53
2018-08-06T11:23:33.272Z,1003.50
2018-08-06T11:24:33.303Z,1003.43
2018-08-06T11:25:33.331Z,1003.42
2018-08-06T11:26:33.359Z,1003.46
2018-08-06T11:27:33.393Z,1003.46
2018-08-06T11:28:33.488Z,1003.37
2018-08-06T11:29:33.450Z,1003.40
2018-08-06T11:30:33.482Z,1003.36
2018-08-06T11:31:33.511Z,1003.41
2018-08-06T11:32:33.533Z,1003.41
2018-08-06T11:33:33.572Z,1003.40
2018-08-06T11:34:33.598Z,1003.39
2018-08-06T11:35:33.631Z,1003.34
2018-08-06T11:36:33.654Z,1003.38
2018-08-06T11:37:33.689Z,1003.38
2018-08-06T11:38:33.720Z,1003.33
2018-08-06T11:39:33.777Z,1003.33
2018-08-06T11:40:33.779Z,1003.31
2018-08-06T11:41:33.817Z,1003.28
2018-08-06T11:42:33.844Z,1003.28
2018-08-06T11:43:33.871Z,1003.23
2018-08-06T11:44:33.904Z,1003.22
2018-08-06T11:45:33.935Z,1003.22
2018-08-06T11:46:33.966Z,1003.23
2018-08-06T11:47:34.004Z,1003.19
2018-08-06T11:48:34.027Z,1003.17
2018-08-06T11:49:34.052Z,1003.17
2018-08-06T11:50:34.095Z,1003.18
2018-08-06T11:51:34.113Z,1003.09
2018-08-06T11:52:34.146Z,1003.10
2018-08-06T11:53:34.179Z,1003.10
2018-08-06T11:54:34.212Z,1003.07
2018-08-06T11:55:34.247Z,1003.10
2018-08-06T11:56:34.307Z,1003.09
2018-08-06T11:57:34.324Z,1003.05
2018-08-06T11:58:34.342Z,1003.05
2018-08-06T11:59:34.375Z,1003.09
2018-08-06T12:00:34.402Z,1003.10
2018-08-06T12:01:34.434Z,1003.07
2018-08-06T12:02:34.454Z,1003.06
2018-08-06T12:03:34.487Z,1003.00
2018-08-06T12:04:34.514Z,1003.03
2018-08-06T12:05:34.561Z,1002.96
2018-08-06T12:06:34.580Z,1002.96
2018-08-06T12:07:34.616Z,1002.91
2018-08-06T12:08:34.655Z,1002.93
2018-08-06T12:09:34.674Z,1002.93
2018-08-06T12:10:34.705Z,1002.93